Terminal Aerodrome Forecast
Issued by NWS Brownsville, TX

Current Version | Previous Version | Text Only | Print | Product List | Glossary Off
Versions: 1 2 3 4 5 6 7 8 9 10 11 12 13 14 15 16 17 18 19 20 21 22

000
FTUS44 KBRO 231500 AAC
TAFHRL
TAF AMD
KHRL 231558Z 2316/2412 15012KT P6SM SCT024
     FM240100 14014G21KT P6SM SCT030
     FM240400 16016KT P6SM OVC019=

USA.gov is the U.S. government's official web portal to all federal, state and local government web resources and services.